Time;durP1;ratioP1;P1;durP2;ratioP2;P2;SDS_P1;SDS_P2;PMS_P1;PMS_P2;Temp;Humidity;BMP_temperature;BMP_pressure;BME280_temperature;BME280_humidity;BME280_pressure;Samples;Min_cycle;Max_cycle;Signal;HPM_P1;HPM_P2
2023/08/14 00:02:03;;;;;;;10.33;5.27;;;;;;;-148.15;100.00;61821.78;4991292;28;20038;-92
2023/08/14 00:04:28;;;;;;;10.23;5.70;;;;;;;-148.15;100.00;61821.78;4991074;28;20113;-93
2023/08/14 00:06:54;;;;;;;10.10;5.13;;;;;;;-148.15;100.00;61821.78;4973168;28;20035;-93
2023/08/14 00:09:19;;;;;;;13.50;5.20;;;;;;;-148.15;100.00;61821.78;4985259;28;20389;-93
2023/08/14 00:11:45;;;;;;;9.47;4.97;;;;;;;-148.15;100.00;61821.78;4972199;28;20462;-93
2023/08/14 00:14:10;;;;;;;9.30;5.68;;;;;;;-148.15;100.00;61821.78;4971855;28;20043;-92
2023/08/14 00:16:36;;;;;;;9.03;5.13;;;;;;;-148.15;100.00;61821.78;4984990;28;20039;-94
2023/08/14 00:19:01;;;;;;;14.30;5.27;;;;;;;-148.15;100.00;61821.78;4991558;28;20105;-94
2023/08/14 00:21:26;;;;;;;7.47;4.93;;;;;;;-148.15;100.00;61821.78;4991535;28;20061;-93
2023/08/14 00:23:52;;;;;;;9.75;4.97;;;;;;;-148.15;100.00;61821.78;4995458;28;20072;-93
2023/08/14 00:26:17;;;;;;;11.23;5.33;;;;;;;-148.15;100.00;61821.78;4996774;28;20027;-94
2023/08/14 00:28:42;;;;;;;10.43;4.70;;;;;;;-148.15;100.00;61821.78;4994968;28;20029;-93
2023/08/14 00:31:08;;;;;;;6.40;5.03;;;;;;;-148.15;100.00;61821.78;4994177;28;20031;-92
2023/08/14 00:33:33;;;;;;;8.50;4.75;;;;;;;-148.15;100.00;61821.78;4990563;28;20037;-93
2023/08/14 00:35:59;;;;;;;9.30;5.60;;;;;;;-148.15;100.00;61821.78;4995540;28;20037;-92
2023/08/14 00:38:24;;;;;;;8.73;5.78;;;;;;;-148.15;100.00;61821.78;5014760;28;20082;-93
2023/08/14 00:40:52;;;;;;;8.63;5.60;;;;;;;-148.15;100.00;61821.78;5007647;28;20041;-93
2023/08/14 00:43:21;;;;;;;9.80;5.57;;;;;;;-148.15;100.00;61821.78;5005029;28;20034;-93
2023/08/14 00:45:46;;;;;;;7.75;5.55;;;;;;;-148.15;100.00;61821.78;5018438;28;20022;-92
2023/08/14 00:48:14;;;;;;;7.82;5.38;;;;;;;-148.15;100.00;61821.78;5010042;28;20089;-93
2023/08/14 00:50:40;;;;;;;10.30;5.40;;;;;;;-148.15;100.00;61821.78;5009971;28;20154;-94
2023/08/14 00:53:05;;;;;;;10.88;6.07;;;;;;;-148.15;100.00;61821.78;5008878;28;20088;-93
2023/08/14 00:55:31;;;;;;;9.63;5.10;;;;;;;-148.15;100.00;61821.78;5009143;28;20026;-94
2023/08/14 00:57:57;;;;;;;10.25;6.05;;;;;;;-148.15;100.00;61821.78;4998268;28;20029;-93
2023/08/14 01:00:23;;;;;;;10.70;6.10;;;;;;;-148.15;100.00;61821.78;4994902;28;20037;-93
2023/08/14 01:02:49;;;;;;;12.02;5.38;;;;;;;-148.15;100.00;61821.78;4994157;28;20034;-94
2023/08/14 01:05:15;;;;;;;7.87;5.40;;;;;;;-148.15;100.00;61821.78;4993382;28;20111;-93
2023/08/14 01:07:41;;;;;;;6.28;5.30;;;;;;;-148.15;100.00;61821.78;4996632;28;20041;-93
2023/08/14 01:10:08;;;;;;;7.40;5.27;;;;;;;-148.15;100.00;61821.78;4994498;28;20042;-94
2023/08/14 01:12:54;;;;;;;7.03;5.22;;;;;;;-148.15;100.00;61821.78;4993799;28;20371;-93
2023/08/14 01:15:44;;;;;;;9.13;5.45;;;;;;;-148.15;100.00;61821.78;4994587;28;20030;-93
2023/08/14 01:18:14;;;;;;;11.02;5.35;;;;;;;-148.15;100.00;61821.78;4993837;28;20033;-94
2023/08/14 01:20:40;;;;;;;9.68;5.50;;;;;;;-148.15;100.00;61821.78;4992360;28;20022;-94
2023/08/14 01:23:17;;;;;;;8.43;5.30;;;;;;;-148.15;100.00;61821.78;4993919;28;20092;-94
2023/08/14 01:25:44;;;;;;;6.28;5.00;;;;;;;-148.15;100.00;61821.78;4993232;28;20046;-93
2023/08/14 01:28:10;;;;;;;7.95;5.38;;;;;;;-148.15;100.00;61821.78;4994197;28;20026;-94
2023/08/14 01:30:35;;;;;;;7.25;5.07;;;;;;;-148.15;100.00;61821.78;4992684;28;20064;-93
2023/08/14 01:33:01;;;;;;;9.03;5.20;;;;;;;-148.15;100.00;61821.78;5001036;28;20074;-94
2023/08/14 01:35:52;;;;;;;7.27;5.13;;;;;;;-148.15;100.00;61821.78;5016571;28;20022;-94
2023/08/14 01:38:26;;;;;;;7.40;5.00;;;;;;;-148.15;100.00;61821.78;5006449;28;20073;-93
2023/08/14 01:41:01;;;;;;;8.80;4.85;;;;;;;-148.15;100.00;61821.78;5005353;28;20090;-94
2023/08/14 01:43:35;;;;;;;5.47;4.60;;;;;;;-148.15;100.00;61821.78;5004141;28;20038;-93
2023/08/14 01:46:01;;;;;;;7.10;4.60;;;;;;;-148.15;100.00;61821.78;4998602;28;20065;-93
2023/08/14 01:48:28;;;;;;;7.07;4.20;;;;;;;-148.15;100.00;61821.78;4999442;28;20022;-94
2023/08/14 01:50:55;;;;;;;6.13;4.45;;;;;;;-148.15;100.00;61821.78;4986555;28;20047;-93
2023/08/14 01:53:20;;;;;;;6.03;4.55;;;;;;;-148.15;100.00;61821.78;4983307;28;20038;-93
2023/08/14 01:55:46;;;;;;;8.77;4.13;;;;;;;-148.15;100.00;61821.78;4993516;28;20026;-94
2023/08/14 01:58:11;;;;;;;10.00;4.83;;;;;;;-148.15;100.00;61821.78;5007446;28;20018;-94
2023/08/14 02:00:37;;;;;;;8.20;4.77;;;;;;;-148.15;100.00;61821.78;5004191;28;20039;-93
2023/08/14 02:03:03;;;;;;;9.65;4.50;;;;;;;-148.15;100.00;61821.78;4995352;28;20054;-93
2023/08/14 02:05:29;;;;;;;7.05;4.50;;;;;;;-148.15;100.00;61821.78;5016842;28;20018;-93
2023/08/14 02:07:55;;;;;;;7.35;4.63;;;;;;;-148.15;100.00;61821.78;4998685;28;20053;-93
2023/08/14 02:10:20;;;;;;;14.23;5.00;;;;;;;-148.15;100.00;61821.78;4992348;28;20043;-94
2023/08/14 02:12:46;;;;;;;7.13;4.30;;;;;;;-148.15;100.00;61821.78;4992978;28;20486;-94
2023/08/14 02:15:11;;;;;;;8.13;4.60;;;;;;;-148.15;100.00;61821.78;4993200;28;20030;-93
2023/08/14 02:17:37;;;;;;;6.93;5.30;;;;;;;-148.15;100.00;61821.78;4992605;28;20084;-94
2023/08/14 02:20:02;;;;;;;9.93;4.93;;;;;;;-148.15;100.00;61821.78;4993365;28;20037;-93
2023/08/14 02:22:28;;;;;;;7.33;4.63;;;;;;;-148.15;100.00;61821.78;4993107;28;20540;-93
2023/08/14 02:24:54;;;;;;;7.55;4.68;;;;;;;-148.15;100.00;61821.78;4992997;28;20561;-93
2023/08/14 02:27:19;;;;;;;9.27;4.97;;;;;;;-148.15;100.00;61821.78;4977409;28;20091;-93
2023/08/14 02:29:45;;;;;;;8.73;4.60;;;;;;;-148.15;100.00;61821.78;4990303;28;20041;-93
2023/08/14 02:32:10;;;;;;;8.23;4.63;;;;;;;-148.15;100.00;61821.78;4993089;28;20765;-93
2023/08/14 02:34:49;;;;;;;9.30;4.97;;;;;;;-148.15;100.00;61821.78;4992363;28;20401;-93
2023/08/14 02:37:17;;;;;;;7.40;5.22;;;;;;;-148.15;100.00;61821.78;4992262;28;20022;-94
2023/08/14 02:39:43;;;;;;;7.47;4.63;;;;;;;-148.15;100.00;61821.78;4992530;28;20129;-92
2023/08/14 02:42:10;;;;;;;6.80;4.80;;;;;;;-148.15;100.00;61821.78;4990928;28;20032;-93
2023/08/14 02:44:36;;;;;;;8.65;5.10;;;;;;;-148.15;100.00;61821.78;4991125;28;20129;-95
2023/08/14 02:47:02;;;;;;;7.07;4.93;;;;;;;-148.15;100.00;61821.78;4992620;28;20022;-93
2023/08/14 02:49:28;;;;;;;10.95;4.55;;;;;;;-148.15;100.00;61821.78;4992508;28;20401;-93
2023/08/14 02:51:54;;;;;;;7.00;4.80;;;;;;;-148.15;100.00;61821.78;4974869;28;20126;-93
2023/08/14 02:54:19;;;;;;;6.57;4.63;;;;;;;-148.15;100.00;61821.78;4992287;28;20109;-93
2023/08/14 02:56:45;;;;;;;6.53;4.50;;;;;;;-148.15;100.00;61821.78;4991431;28;20036;-94
2023/08/14 02:59:10;;;;;;;8.87;4.47;;;;;;;-148.15;100.00;61821.78;4990562;28;20098;-93
2023/08/14 03:17:36;;;;;;;11.23;6.03;;;;;;;-148.15;100.00;61821.78;5110808;23;20076;-96
2023/08/14 04:10:06;;;;;;;11.50;6.95;;;;;;;-148.15;100.00;61821.78;5051808;23;20046;-96
2023/08/14 04:12:31;;;;;;;10.25;6.13;;;;;;;-148.15;100.00;61821.78;5020186;28;20045;-96
2023/08/14 04:15:11;;;;;;;9.53;6.93;;;;;;;-148.15;100.00;61821.78;5021605;28;20030;-96
2023/08/14 04:17:37;;;;;;;12.40;6.82;;;;;;;-148.15;100.00;61821.78;5021316;28;20025;-96
2023/08/14 04:20:03;;;;;;;11.98;6.97;;;;;;;-148.15;100.00;61821.78;5021802;28;20022;-96
2023/08/14 04:22:28;;;;;;;13.68;7.03;;;;;;;-148.15;100.00;61821.78;5021457;28;20076;-95
2023/08/14 04:24:54;;;;;;;12.70;7.23;;;;;;;-148.15;100.00;61821.78;5021266;28;20042;-96
2023/08/14 04:27:20;;;;;;;9.55;6.95;;;;;;;-148.15;100.00;61821.78;5021188;28;20022;-96
2023/08/14 04:29:45;;;;;;;11.37;6.43;;;;;;;-148.15;100.00;61821.78;5021625;28;20038;-96
2023/08/14 04:32:11;;;;;;;11.63;6.72;;;;;;;-148.15;100.00;61821.78;5021343;28;20014;-96
2023/08/14 04:34:39;;;;;;;10.17;7.03;;;;;;;-148.15;100.00;61821.78;5021727;28;20045;-96
2023/08/14 04:39:39;;;;;;;12.65;6.70;;;;;;;-148.15;100.00;61821.78;5273124;23;20057;-96
2023/08/14 04:42:05;;;;;;;13.30;7.00;;;;;;;-148.15;100.00;61821.78;5020323;28;20042;-96
2023/08/14 04:44:31;;;;;;;14.27;7.25;;;;;;;-148.15;100.00;61821.78;5020533;28;20026;-96
2023/08/14 04:46:59;;;;;;;11.20;7.30;;;;;;;-148.15;100.00;61821.78;5018770;28;20066;-96
2023/08/14 04:49:24;;;;;;;12.77;6.83;;;;;;;-148.15;100.00;61821.78;5021695;28;20853;-96
2023/08/14 04:51:50;;;;;;;10.70;6.80;;;;;;;-148.15;100.00;61821.78;5021755;28;20010;-96
2023/08/14 04:56:51;;;;;;;9.63;6.72;;;;;;;-148.15;100.00;61821.78;5293113;23;20056;-96
2023/08/14 04:59:17;;;;;;;8.20;6.65;;;;;;;-148.15;100.00;61821.78;5019985;28;20030;-96
2023/08/14 05:02:00;;;;;;;8.37;6.60;;;;;;;-148.15;100.00;61821.78;5003417;28;20017;-96
2023/08/14 05:04:25;;;;;;;9.98;6.47;;;;;;;-148.15;100.00;61821.78;5020305;28;20033;-95
2023/08/14 05:06:51;;;;;;;14.10;6.78;;;;;;;-148.15;100.00;61821.78;5001607;28;20037;-96
2023/08/14 05:09:17;;;;;;;10.30;7.07;;;;;;;-148.15;100.00;61821.78;5018202;28;20278;-96
2023/08/14 05:11:43;;;;;;;10.15;7.30;;;;;;;-148.15;100.00;61821.78;5013481;28;20053;-96
2023/08/14 05:14:09;;;;;;;15.67;7.00;;;;;;;-148.15;100.00;61821.78;4997444;28;20027;-95
2023/08/14 05:16:34;;;;;;;8.85;7.22;;;;;;;-148.15;100.00;61821.78;4995217;28;20023;-96
2023/08/14 05:19:00;;;;;;;7.83;6.50;;;;;;;-148.15;100.00;61821.78;4977964;28;20031;-96
2023/08/14 05:21:25;;;;;;;11.80;6.88;;;;;;;-148.15;100.00;61821.78;4997001;28;20031;-95
2023/08/14 05:23:51;;;;;;;12.80;7.07;;;;;;;-148.15;100.00;61821.78;5011946;28;20030;-96
2023/08/14 05:26:17;;;;;;;10.30;7.15;;;;;;;-148.15;100.00;61821.78;4998302;28;20014;-96
2023/08/14 05:28:42;;;;;;;9.80;7.20;;;;;;;-148.15;100.00;61821.78;4999714;28;20045;-91
2023/08/14 05:31:07;;;;;;;9.90;7.10;;;;;;;-148.15;100.00;61821.78;4992654;28;20058;-88
2023/08/14 05:33:33;;;;;;;12.03;6.77;;;;;;;-148.15;100.00;61821.78;4992302;28;20030;-87
2023/08/14 05:35:58;;;;;;;9.07;6.63;;;;;;;-148.15;100.00;61821.78;4992620;28;20027;-90
2023/08/14 05:38:24;;;;;;;11.73;7.00;;;;;;;-148.15;100.00;61821.78;4991440;28;20046;-89
2023/08/14 05:40:49;;;;;;;9.23;6.87;;;;;;;-148.15;100.00;61821.78;4983683;28;20038;-88
2023/08/14 05:43:15;;;;;;;11.63;7.13;;;;;;;-148.15;100.00;61821.78;4983856;28;20034;-90
2023/08/14 05:45:45;;;;;;;9.20;6.87;;;;;;;-148.15;100.00;61821.78;4990322;28;20397;-90
2023/08/14 05:48:11;;;;;;;10.85;6.85;;;;;;;-148.15;100.00;61821.78;4991603;28;20176;-88
2023/08/14 05:50:36;;;;;;;9.43;6.80;;;;;;;-148.15;100.00;61821.78;4981646;28;20118;-87
2023/08/14 05:53:04;;;;;;;9.15;6.85;;;;;;;-148.15;100.00;61821.78;4980269;28;20030;-88
2023/08/14 05:55:31;;;;;;;7.20;5.90;;;;;;;-148.15;100.00;61821.78;4985716;28;20018;-88
2023/08/14 05:57:57;;;;;;;7.30;6.60;;;;;;;-148.15;100.00;61821.78;4976043;28;20361;-88
2023/08/14 06:00:24;;;;;;;9.38;6.63;;;;;;;-148.15;100.00;61821.78;4975363;28;20105;-88
2023/08/14 06:02:50;;;;;;;12.05;6.82;;;;;;;-148.15;100.00;61821.78;4973130;28;20041;-88
2023/08/14 06:05:16;;;;;;;10.87;7.20;;;;;;;-148.15;100.00;61821.78;4988857;28;20031;-87
2023/08/14 06:07:41;;;;;;;8.43;6.33;;;;;;;-148.15;100.00;61821.78;4985124;28;20281;-87
2023/08/14 06:10:07;;;;;;;10.00;6.50;;;;;;;-148.15;100.00;61821.78;4982801;28;20045;-88
2023/08/14 06:12:32;;;;;;;11.70;6.77;;;;;;;-148.15;100.00;61821.78;4978554;28;20058;-87
2023/08/14 06:14:58;;;;;;;10.85;7.22;;;;;;;-148.15;100.00;61821.78;4984338;28;20426;-88
2023/08/14 06:17:24;;;;;;;11.23;6.93;;;;;;;-148.15;100.00;61821.78;4991753;28;20041;-88
2023/08/14 06:19:50;;;;;;;12.25;7.45;;;;;;;-148.15;100.00;61821.78;4989955;28;20073;-89
2023/08/14 06:22:16;;;;;;;8.83;6.97;;;;;;;-148.15;100.00;61821.78;4991891;28;20050;-90
2023/08/14 06:24:41;;;;;;;10.77;6.80;;;;;;;-148.15;100.00;61821.78;4989982;28;20022;-90
2023/08/14 06:27:07;;;;;;;14.35;7.70;;;;;;;-148.15;100.00;61821.78;4991881;28;20497;-89
2023/08/14 06:29:32;;;;;;;10.73;7.27;;;;;;;-148.15;100.00;61821.78;4989702;28;20027;-89
2023/08/14 06:31:58;;;;;;;11.77;7.30;;;;;;;-148.15;100.00;61821.78;4991849;28;20019;-89
2023/08/14 06:34:23;;;;;;;13.17;7.90;;;;;;;-148.15;100.00;61821.78;4990945;28;20015;-89
2023/08/14 06:36:49;;;;;;;14.75;9.40;;;;;;;-148.15;100.00;61821.78;4991208;28;20706;-90
2023/08/14 06:39:14;;;;;;;14.50;8.63;;;;;;;-148.15;100.00;61821.78;4991673;28;20022;-89
2023/08/14 06:41:39;;;;;;;13.17;9.20;;;;;;;-148.15;100.00;61821.78;4991549;28;20027;-89
2023/08/14 06:44:08;;;;;;;12.87;9.23;;;;;;;-148.15;100.00;61821.78;4989603;28;20635;-89
2023/08/14 06:46:34;;;;;;;13.93;8.20;;;;;;;-148.15;100.00;61821.78;4990866;28;20030;-90
2023/08/14 06:48:59;;;;;;;15.23;7.50;;;;;;;-148.15;100.00;61821.78;4991656;28;20029;-89
2023/08/14 06:51:24;;;;;;;12.27;7.40;;;;;;;-148.15;100.00;61821.78;4991381;28;20085;-89
2023/08/14 06:53:50;;;;;;;11.43;7.77;;;;;;;-148.15;100.00;61821.78;4990789;28;20379;-89
2023/08/14 06:56:15;;;;;;;15.57;7.40;;;;;;;-148.15;100.00;61821.78;4991196;28;20105;-89
2023/08/14 06:58:40;;;;;;;13.20;7.27;;;;;;;-148.15;100.00;61821.78;4990814;28;20035;-89
2023/08/14 07:01:06;;;;;;;13.97;7.17;;;;;;;-148.15;100.00;61821.78;4972216;28;20034;-89
2023/08/14 07:03:32;;;;;;;12.18;7.65;;;;;;;-148.15;100.00;61821.78;4990709;28;20077;-89
2023/08/14 07:05:57;;;;;;;11.95;7.55;;;;;;;-148.15;100.00;61821.78;4991089;28;20400;-91
2023/08/14 07:08:24;;;;;;;10.20;6.63;;;;;;;-148.15;100.00;61821.78;4991809;28;20030;-90
2023/08/14 07:10:50;;;;;;;11.70;6.40;;;;;;;-148.15;100.00;61821.78;4992463;28;20076;-90
2023/08/14 07:13:15;;;;;;;12.13;6.43;;;;;;;-148.15;100.00;61821.78;4991849;28;20026;-91
2023/08/14 07:15:40;;;;;;;10.40;5.87;;;;;;;-148.15;100.00;61821.78;4991503;28;20038;-89
2023/08/14 07:18:06;;;;;;;11.75;5.97;;;;;;;-148.15;100.00;61821.78;4997111;28;20031;-89
2023/08/14 07:20:31;;;;;;;9.97;5.40;;;;;;;-148.15;100.00;61821.78;4992353;28;20108;-90
2023/08/14 07:22:57;;;;;;;10.02;5.35;;;;;;;-148.15;100.00;61821.78;4993525;28;20027;-89
2023/08/14 07:25:23;;;;;;;12.57;5.60;;;;;;;-148.15;100.00;61821.78;4992751;28;20023;-90
2023/08/14 07:27:48;;;;;;;15.45;5.90;;;;;;;-148.15;100.00;61821.78;4990455;28;20040;-90
2023/08/14 07:30:14;;;;;;;17.60;5.40;;;;;;;-148.15;100.00;61821.78;4991786;28;20385;-90
2023/08/14 07:32:40;;;;;;;13.43;5.50;;;;;;;-148.15;100.00;61821.78;4990701;28;20018;-90
2023/08/14 07:35:06;;;;;;;10.07;5.63;;;;;;;-148.15;100.00;61821.78;4989572;28;20289;-90
2023/08/14 07:37:31;;;;;;;16.15;5.45;;;;;;;-148.15;100.00;61821.78;4990470;28;20030;-89
2023/08/14 07:39:56;;;;;;;15.40;5.20;;;;;;;-148.15;100.00;61821.78;4990877;28;20437;-88
2023/08/14 07:42:22;;;;;;;8.80;5.00;;;;;;;-148.15;100.00;61821.78;4990696;28;20049;-88
2023/08/14 07:44:47;;;;;;;9.80;5.40;;;;;;;-148.15;100.00;61821.78;4990460;28;20035;-88
2023/08/14 07:47:12;;;;;;;8.82;4.70;;;;;;;-148.15;100.00;61821.78;4990514;28;20081;-88
2023/08/14 07:49:38;;;;;;;9.73;5.23;;;;;;;-148.15;100.00;61821.78;4990150;28;20066;-88
2023/08/14 07:52:05;;;;;;;10.97;4.43;;;;;;;-148.15;100.00;61821.78;4990553;28;20022;-88
2023/08/14 07:54:30;;;;;;;9.67;4.23;;;;;;;-148.15;100.00;61821.78;4990710;28;20372;-88
2023/08/14 07:56:55;;;;;;;8.15;4.43;;;;;;;-148.15;100.00;61821.78;4989922;28;20173;-88
2023/08/14 07:59:20;;;;;;;11.33;4.40;;;;;;;-148.15;100.00;61821.78;4991776;28;20474;-88
2023/08/14 08:01:46;;;;;;;12.30;4.20;;;;;;;-148.15;100.00;61821.78;4990961;28;20018;-90
2023/08/14 08:04:11;;;;;;;9.43;4.03;;;;;;;-148.15;100.00;61821.78;4992548;28;20027;-89
2023/08/14 08:06:37;;;;;;;6.60;3.60;;;;;;;-148.15;100.00;61821.78;4989394;28;20511;-89
2023/08/14 08:09:03;;;;;;;8.70;3.30;;;;;;;-148.15;100.00;61821.78;4991901;28;20045;-89
2023/08/14 08:11:28;;;;;;;12.27;3.77;;;;;;;-148.15;100.00;61821.78;4990474;28;20661;-90
2023/08/14 08:13:54;;;;;;;10.10;3.15;;;;;;;-148.15;100.00;61821.78;4990820;28;20044;-89
2023/08/14 08:16:19;;;;;;;9.90;2.83;;;;;;;-148.15;100.00;61821.78;4990860;28;20054;-89
2023/08/14 08:18:45;;;;;;;9.50;3.03;;;;;;;-148.15;100.00;61821.78;4991235;28;20053;-89
2023/08/14 08:21:10;;;;;;;8.65;3.25;;;;;;;-148.15;100.00;61821.78;4990514;28;20537;-89
2023/08/14 08:23:36;;;;;;;7.77;3.13;;;;;;;-148.15;100.00;61821.78;4990150;28;20070;-89
2023/08/14 08:26:01;;;;;;;9.07;3.00;;;;;;;-148.15;100.00;61821.78;4990028;28;20105;-89
2023/08/14 08:28:26;;;;;;;5.47;2.90;;;;;;;-148.15;100.00;61821.78;4992332;28;20027;-89
2023/08/14 08:30:52;;;;;;;6.67;2.93;;;;;;;-148.15;100.00;61821.78;4994936;28;20619;-89
2023/08/14 08:33:17;;;;;;;7.78;3.20;;;;;;;-148.15;100.00;61821.78;4991044;28;20556;-90
2023/08/14 08:35:42;;;;;;;7.20;3.10;;;;;;;-148.15;100.00;61821.78;4988400;28;20026;-89
2023/08/14 08:38:07;;;;;;;8.43;2.83;;;;;;;-148.15;100.00;61821.78;4995801;28;20042;-88
2023/08/14 08:40:33;;;;;;;7.03;2.53;;;;;;;-148.15;100.00;61821.78;4991950;28;20022;-89
2023/08/14 08:43:00;;;;;;;5.70;2.25;;;;;;;-148.15;100.00;61821.78;4993300;28;20081;-89
2023/08/14 08:45:31;;;;;;;7.38;2.60;;;;;;;-148.15;100.00;61821.78;4998878;28;20033;-89
2023/08/14 08:47:59;;;;;;;8.45;2.58;;;;;;;-148.15;100.00;61821.78;4994644;28;20019;-89
2023/08/14 08:50:27;;;;;;;7.37;2.13;;;;;;;-148.15;100.00;61821.78;4994068;28;20033;-89
2023/08/14 08:52:54;;;;;;;5.43;2.27;;;;;;;-148.15;100.00;61821.78;4979139;28;20293;-90
2023/08/14 08:55:20;;;;;;;3.20;1.80;;;;;;;-148.15;100.00;61821.78;4994994;28;20533;-89
2023/08/14 08:57:48;;;;;;;7.20;2.30;;;;;;;-148.15;100.00;61821.78;4993875;28;20022;-90
2023/08/14 09:00:14;;;;;;;5.95;2.15;;;;;;;-148.15;100.00;61821.78;4995487;28;20414;-89
2023/08/14 09:02:40;;;;;;;4.93;2.20;;;;;;;-148.15;100.00;61821.78;4995503;28;20465;-89
2023/08/14 09:05:06;;;;;;;6.27;2.00;;;;;;;-148.15;100.00;61821.78;4993768;28;20023;-90
2023/08/14 09:07:32;;;;;;;6.93;1.98;;;;;;;-148.15;100.00;61821.78;4975550;28;20048;-89
2023/08/14 09:09:58;;;;;;;4.43;2.00;;;;;;;-148.15;100.00;61821.78;4993588;28;20022;-90
2023/08/14 09:12:23;;;;;;;4.17;2.10;;;;;;;-148.15;100.00;61821.78;4994260;28;20113;-90
2023/08/14 09:15:07;;;;;;;7.50;1.90;;;;;;;-148.15;100.00;61821.78;4995088;28;20023;-89
2023/08/14 09:17:33;;;;;;;7.13;1.85;;;;;;;-148.15;100.00;61821.78;4993491;28;20024;-91
2023/08/14 09:19:59;;;;;;;7.73;2.00;;;;;;;-148.15;100.00;61821.78;4994220;28;20130;-90
2023/08/14 09:22:28;;;;;;;4.97;2.00;;;;;;;-148.15;100.00;61821.78;4992972;28;20421;-89
2023/08/14 09:24:54;;;;;;;5.17;1.83;;;;;;;-148.15;100.00;61821.78;4976879;28;20034;-90
2023/08/14 09:27:21;;;;;;;7.60;2.10;;;;;;;-148.15;100.00;61821.78;4973763;28;20282;-91
2023/08/14 09:29:46;;;;;;;5.45;1.77;;;;;;;-148.15;100.00;61821.78;4974209;28;20026;-91
2023/08/14 09:32:12;;;;;;;6.95;1.98;;;;;;;-148.15;100.00;61821.78;4975165;28;20023;-91
2023/08/14 09:34:37;;;;;;;4.33;2.00;;;;;;;-148.15;100.00;61821.78;4975673;28;20049;-91
2023/08/14 09:37:04;;;;;;;6.90;2.07;;;;;;;-148.15;100.00;61821.78;4976178;28;20026;-89
2023/08/14 09:39:29;;;;;;;8.75;2.30;;;;;;;-148.15;100.00;61821.78;4993772;28;20037;-90
2023/08/14 09:41:55;;;;;;;11.40;2.10;;;;;;;-148.15;100.00;61821.78;4994216;28;20026;-90
2023/08/14 09:44:23;;;;;;;4.63;2.13;;;;;;;-148.15;100.00;61821.78;4995919;28;20026;-89
2023/08/14 09:46:51;;;;;;;7.65;2.10;;;;;;;-148.15;100.00;61821.78;4994807;28;20034;-92
2023/08/14 09:49:18;;;;;;;3.90;1.85;;;;;;;-148.15;100.00;61821.78;4994665;28;20549;-92
2023/08/14 09:51:58;;;;;;;4.78;1.67;;;;;;;-148.15;100.00;61821.78;4995361;28;20394;-91
2023/08/14 09:54:31;;;;;;;4.73;1.70;;;;;;;-148.15;100.00;61821.78;4996644;28;20438;-90
2023/08/14 09:56:59;;;;;;;4.53;1.57;;;;;;;-148.15;100.00;61821.78;5005968;28;20281;-90
2023/08/14 09:59:25;;;;;;;5.50;1.80;;;;;;;-148.15;100.00;61821.78;5001228;28;20026;-91
2023/08/14 10:01:57;;;;;;;5.25;1.75;;;;;;;-148.15;100.00;61821.78;4996554;28;20018;-91
2023/08/14 10:04:27;;;;;;;5.38;1.70;;;;;;;-148.15;100.00;61821.78;5010559;28;20026;-93
2023/08/14 10:06:56;;;;;;;5.15;1.92;;;;;;;-148.15;100.00;61821.78;4982897;28;20519;-90
2023/08/14 10:09:27;;;;;;;3.63;1.70;;;;;;;-148.15;100.00;61821.78;5002754;28;20045;-92
2023/08/14 10:11:56;;;;;;;4.45;2.03;;;;;;;-148.15;100.00;61821.78;4998525;28;20026;-93
2023/08/14 10:14:24;;;;;;;4.43;1.77;;;;;;;-148.15;100.00;61821.78;4983641;28;20057;-93
2023/08/14 10:16:52;;;;;;;4.50;1.60;;;;;;;-148.15;100.00;61821.78;5000896;28;20022;-93
2023/08/14 10:19:21;;;;;;;4.03;1.42;;;;;;;-148.15;100.00;61821.78;4995536;28;20053;-92
2023/08/14 10:21:52;;;;;;;7.13;2.47;;;;;;;-148.15;100.00;61821.78;4992009;28;20418;-92
2023/08/14 10:24:18;;;;;;;5.95;2.13;;;;;;;-148.15;100.00;61821.78;4993856;28;20034;-92
2023/08/14 10:26:45;;;;;;;5.22;1.40;;;;;;;-148.15;100.00;61821.78;4994877;28;20033;-92
2023/08/14 10:29:12;;;;;;;3.45;1.60;;;;;;;-148.15;100.00;61821.78;5000442;28;20546;-92
2023/08/14 10:31:38;;;;;;;4.35;1.90;;;;;;;-148.15;100.00;61821.78;4999536;28;20034;-91
2023/08/14 10:34:04;;;;;;;3.33;1.53;;;;;;;-148.15;100.00;61821.78;4981306;28;20031;-92
2023/08/14 10:36:30;;;;;;;5.57;2.27;;;;;;;-148.15;100.00;61821.78;4992201;28;20297;-92
2023/08/14 10:39:10;;;;;;;4.65;1.75;;;;;;;-148.15;100.00;61821.78;4992307;28;20385;-92
2023/08/14 10:41:36;;;;;;;6.68;1.80;;;;;;;-148.15;100.00;61821.78;4992204;28;20026;-91
2023/08/14 10:44:10;;;;;;;6.93;2.10;;;;;;;-148.15;100.00;61821.78;4992961;28;20029;-93
2023/08/14 10:46:39;;;;;;;4.97;1.80;;;;;;;-148.15;100.00;61821.78;4974212;28;20558;-92
2023/08/14 10:49:04;;;;;;;4.20;1.97;;;;;;;-148.15;100.00;61821.78;4994805;28;20274;-92
2023/08/14 10:51:31;;;;;;;6.70;1.92;;;;;;;-148.15;100.00;61821.78;4994742;28;20453;-92
2023/08/14 10:54:09;;;;;;;5.10;2.13;;;;;;;-148.15;100.00;61821.78;4993167;28;20081;-92
2023/08/14 10:56:46;;;;;;;6.73;1.73;;;;;;;-148.15;100.00;61821.78;4992753;28;20783;-91
2023/08/14 10:59:28;;;;;;;4.53;2.03;;;;;;;-148.15;100.00;61821.78;4974776;28;20289;-90
2023/08/14 11:02:13;;;;;;;3.75;2.13;;;;;;;-148.15;100.00;61821.78;4992427;28;20088;-91
2023/08/14 11:05:00;;;;;;;11.45;1.98;;;;;;;-148.15;100.00;61821.78;4975870;28;20073;-91
2023/08/14 11:07:32;;;;;;;6.45;2.15;;;;;;;-148.15;100.00;61821.78;4976152;28;20033;-92
2023/08/14 11:09:58;;;;;;;5.22;2.20;;;;;;;-148.15;100.00;61821.78;4995964;28;20026;-92
2023/08/14 11:12:24;;;;;;;4.57;2.33;;;;;;;-148.15;100.00;61821.78;4995302;28;20117;-92
2023/08/14 11:14:50;;;;;;;7.45;2.30;;;;;;;-148.15;100.00;61821.78;5001172;28;20046;-92
2023/08/14 11:17:15;;;;;;;4.27;1.50;;;;;;;-148.15;100.00;61821.78;5009545;28;20084;-92
2023/08/14 11:19:41;;;;;;;6.43;1.97;;;;;;;-148.15;100.00;61821.78;4994258;28;20064;-90
2023/08/14 11:22:06;;;;;;;4.63;2.20;;;;;;;-148.15;100.00;61821.78;4986688;28;20031;-91
2023/08/14 11:24:32;;;;;;;6.05;2.00;;;;;;;-148.15;100.00;61821.78;4982912;28;20046;-91
2023/08/14 11:26:59;;;;;;;5.28;1.85;;;;;;;-148.15;100.00;61821.78;4974636;28;20031;-91
2023/08/14 11:29:25;;;;;;;4.90;2.00;;;;;;;-148.15;100.00;61821.78;4979617;28;20030;-92
2023/08/14 11:31:51;;;;;;;8.80;2.30;;;;;;;-148.15;100.00;61821.78;4983388;28;20251;-91
2023/08/14 11:34:18;;;;;;;5.75;2.33;;;;;;;-148.15;100.00;61821.78;4980301;28;20054;-92
2023/08/14 11:36:59;;;;;;;5.00;2.10;;;;;;;-148.15;100.00;61821.78;4981752;28;20442;-92
2023/08/14 11:39:27;;;;;;;5.75;1.98;;;;;;;-148.15;100.00;61821.78;4995529;28;20057;-93
2023/08/14 11:41:53;;;;;;;5.77;1.90;;;;;;;-148.15;100.00;61821.78;4995899;28;20026;-93
2023/08/14 11:44:18;;;;;;;4.07;1.90;;;;;;;-148.15;100.00;61821.78;4996310;28;20296;-91
2023/08/14 11:46:44;;;;;;;5.63;1.77;;;;;;;-148.15;100.00;61821.78;4994069;28;20496;-92
2023/08/14 11:49:12;;;;;;;6.10;2.15;;;;;;;-148.15;100.00;61821.78;4995343;28;20037;-93
2023/08/14 11:51:39;;;;;;;6.57;1.77;;;;;;;-148.15;100.00;61821.78;4994744;28;20033;-92
2023/08/14 11:54:05;;;;;;;7.03;1.70;;;;;;;-148.15;100.00;61821.78;4998097;28;20329;-93
2023/08/14 11:56:30;;;;;;;5.15;2.10;;;;;;;-148.15;100.00;61821.78;4998473;28;20042;-93
2023/08/14 11:58:56;;;;;;;5.10;1.90;;;;;;;-148.15;100.00;61821.78;4992826;28;20046;-93
2023/08/14 12:01:22;;;;;;;7.43;2.15;;;;;;;-148.15;100.00;61821.78;4992104;28;20794;-93
2023/08/14 12:03:47;;;;;;;4.80;2.10;;;;;;;-148.15;100.00;61821.78;4991903;28;20038;-93
2023/08/14 12:06:13;;;;;;;5.00;1.90;;;;;;;-148.15;100.00;61821.78;4991032;28;20018;-94
2023/08/14 12:08:38;;;;;;;5.38;2.08;;;;;;;-148.15;100.00;61821.78;4979318;28;20034;-93
2023/08/14 12:11:05;;;;;;;7.17;1.93;;;;;;;-148.15;100.00;61821.78;4954067;28;20038;-93
2023/08/14 12:13:33;;;;;;;5.93;2.10;;;;;;;-148.15;100.00;61821.78;4972621;28;20038;-93
2023/08/14 12:16:06;;;;;;;4.85;2.38;;;;;;;-148.15;100.00;61821.78;4974113;28;20023;-92
2023/08/14 12:18:31;;;;;;;5.95;2.53;;;;;;;-148.15;100.00;61821.78;4975610;28;20039;-93